createdAt,value
2023-01-21T00:01:15.906Z,0.65
2023-01-21T00:03:44.049Z,0.65
2023-01-21T00:06:14.837Z,0.63
2023-01-21T00:08:42.694Z,0.50
2023-01-21T00:11:14.822Z,0.50
2023-01-21T00:13:43.927Z,0.45
2023-01-21T00:16:13.196Z,1.23
2023-01-21T00:18:41.388Z,1.45
2023-01-21T00:21:09.197Z,0.85
2023-01-21T00:23:38.212Z,0.95
2023-01-21T00:26:09.362Z,1.33
2023-01-21T00:28:38.173Z,1.17
2023-01-21T00:31:09.108Z,1.20
2023-01-21T00:33:37.161Z,0.77
2023-01-21T00:36:08.518Z,0.70
2023-01-21T00:38:38.500Z,0.82
2023-01-21T00:41:09.363Z,1.25
2023-01-21T00:43:37.649Z,1.05
2023-01-21T00:46:05.985Z,1.13
2023-01-21T00:48:34.792Z,1.10
2023-01-21T00:51:02.686Z,1.17
2023-01-21T00:53:33.199Z,1.17
2023-01-21T00:56:04.242Z,1.45
2023-01-21T00:58:32.755Z,0.73
2023-01-21T01:01:04.715Z,0.68
2023-01-21T01:03:33.293Z,0.90
2023-01-21T01:06:05.863Z,0.70
2023-01-21T01:08:34.009Z,0.82
2023-01-21T01:11:03.681Z,0.55
2023-01-21T01:13:34.041Z,0.60
2023-01-21T01:16:02.489Z,0.65
2023-01-21T01:18:33.641Z,1.05
2023-01-21T01:21:02.212Z,0.40
2023-01-21T01:23:30.621Z,0.93
2023-01-21T01:26:04.762Z,0.70
2023-01-21T01:28:34.374Z,0.82
2023-01-21T01:31:05.155Z,0.57
2023-01-21T01:33:33.513Z,0.98
2023-01-21T01:36:03.667Z,1.42
2023-01-21T01:38:32.415Z,0.55
2023-01-21T01:41:00.205Z,1.00
2023-01-21T01:43:55.025Z,0.40
2023-01-21T01:46:24.394Z,1.25
2023-01-21T01:49:01.237Z,0.88
2023-01-21T01:51:41.918Z,0.70
2023-01-21T01:54:14.478Z,0.45
2023-01-21T01:56:46.924Z,0.85
2023-01-21T01:59:16.419Z,0.77
2023-01-21T02:01:44.367Z,0.77
2023-01-21T02:04:21.799Z,1.08
2023-01-21T02:06:53.221Z,0.50
2023-01-21T02:09:21.374Z,1.67
2023-01-21T02:11:49.240Z,0.93
2023-01-21T02:14:18.793Z,1.27
2023-01-21T02:17:11.933Z,0.57
2023-01-21T02:20:50.899Z,1.00
2023-01-21T02:23:32.910Z,0.60
2023-01-21T02:26:41.550Z,0.73
2023-01-21T02:30:08.705Z,0.55
2023-01-21T02:33:25.500Z,0.80
2023-01-21T02:36:10.628Z,0.77
2023-01-21T02:38:47.532Z,0.52
2023-01-21T02:41:30.596Z,0.40
2023-01-21T02:44:11.161Z,0.75
2023-01-21T02:46:48.103Z,1.27
2023-01-21T02:49:25.482Z,0.63
2023-01-21T02:51:53.190Z,0.75
2023-01-21T02:54:53.473Z,0.43
2023-01-21T02:57:34.996Z,0.30
2023-01-21T03:00:10.679Z,0.50
2023-01-21T03:03:22.219Z,0.32
2023-01-21T03:06:30.213Z,0.82
2023-01-21T03:09:10.114Z,0.95
2023-01-21T03:11:38.454Z,0.90
2023-01-21T03:14:35.248Z,0.80
2023-01-21T03:17:12.106Z,0.50
2023-01-21T03:19:47.741Z,0.70
2023-01-21T03:22:24.252Z,0.65
2023-01-21T03:24:56.197Z,0.77
2023-01-21T03:27:28.854Z,1.33
2023-01-21T03:30:03.204Z,0.50
2023-01-21T03:32:35.486Z,0.40
2023-01-21T03:35:08.016Z,0.77
2023-01-21T03:37:43.792Z,0.68
2023-01-21T03:40:22.445Z,0.90
2023-01-21T03:42:53.514Z,0.75
2023-01-21T03:45:37.575Z,1.38
2023-01-21T03:48:18.131Z,0.82
2023-01-21T03:50:57.543Z,1.00
2023-01-21T03:53:27.049Z,1.02
2023-01-21T03:55:54.799Z,0.57
2023-01-21T03:58:22.623Z,0.75
2023-01-21T04:00:50.379Z,0.68
2023-01-21T04:03:18.261Z,1.23
2023-01-21T04:05:46.007Z,1.23
2023-01-21T04:08:13.721Z,0.98
2023-01-21T04:10:43.528Z,0.85
2023-01-21T04:13:11.304Z,0.52
2023-01-21T04:15:38.977Z,0.65
2023-01-21T04:18:06.800Z,0.63
2023-01-21T04:20:34.663Z,1.00
2023-01-21T04:23:02.375Z,0.38
2023-01-21T04:25:30.124Z,0.40
2023-01-21T04:27:59.220Z,0.77
2023-01-21T04:30:27.111Z,0.30
2023-01-21T04:32:54.863Z,0.52
2023-01-21T04:35:22.585Z,0.60
2023-01-21T04:37:50.395Z,0.57
2023-01-21T04:40:19.089Z,0.30
2023-01-21T04:42:46.926Z,0.38
2023-01-21T04:45:16.139Z,0.30
2023-01-21T04:47:44.772Z,0.45
2023-01-21T04:50:14.285Z,0.40
2023-01-21T04:52:42.622Z,0.50
2023-01-21T04:55:11.811Z,0.85
2023-01-21T04:57:39.515Z,0.68
2023-01-21T05:00:10.271Z,0.50
2023-01-21T05:02:39.381Z,1.05
2023-01-21T05:05:08.290Z,1.27
2023-01-21T05:07:36.391Z,0.65
2023-01-21T05:10:05.237Z,0.70
2023-01-21T05:12:32.999Z,1.42
2023-01-21T05:15:00.722Z,0.38
2023-01-21T05:17:28.726Z,1.65
2023-01-21T05:19:57.805Z,1.10
2023-01-21T05:22:25.696Z,0.77
2023-01-21T05:24:53.607Z,0.50
2023-01-21T05:27:21.678Z,0.55
2023-01-21T05:29:49.533Z,0.60
2023-01-21T05:32:17.349Z,0.30
2023-01-21T05:34:45.072Z,0.82
2023-01-21T05:37:14.921Z,0.50
2023-01-21T05:39:43.515Z,0.90
2023-01-21T05:42:11.493Z,0.60
2023-01-21T05:44:39.213Z,1.45
2023-01-21T05:47:07.558Z,1.02
2023-01-21T05:49:35.669Z,0.68
2023-01-21T05:52:03.511Z,1.33
2023-01-21T05:54:32.584Z,0.52
2023-01-21T05:57:00.381Z,1.15
2023-01-21T05:59:28.495Z,0.65
2023-01-21T06:01:56.253Z,1.02
2023-01-21T06:04:28.280Z,1.23
2023-01-21T06:06:55.993Z,0.57
2023-01-21T06:09:24.005Z,1.70
2023-01-21T06:11:53.171Z,0.43
2023-01-21T06:14:20.957Z,0.65
2023-01-21T06:16:48.702Z,1.15
2023-01-21T06:19:16.606Z,0.73
2023-01-21T06:21:44.350Z,0.95
2023-01-21T06:24:12.057Z,0.77
2023-01-21T06:26:40.413Z,0.47
2023-01-21T06:29:09.493Z,1.38
2023-01-21T06:31:37.375Z,0.93
2023-01-21T06:34:05.172Z,1.42
2023-01-21T06:36:32.923Z,0.95
2023-01-21T06:39:00.681Z,1.95
2023-01-21T06:41:28.470Z,0.57
2023-01-21T06:43:57.186Z,0.50
2023-01-21T06:46:26.242Z,0.63
2023-01-21T06:48:54.299Z,1.38
2023-01-21T06:51:22.179Z,1.30
2023-01-21T06:53:49.940Z,1.42
2023-01-21T06:56:17.678Z,1.63
2023-01-21T06:58:45.405Z,1.98
2023-01-21T07:01:13.174Z,1.35
2023-01-21T07:03:42.305Z,1.05
2023-01-21T07:06:10.043Z,1.38
2023-01-21T07:08:37.750Z,1.42
2023-01-21T07:11:05.955Z,1.42
2023-01-21T07:13:33.664Z,1.02
2023-01-21T07:16:01.890Z,1.15
2023-01-21T07:18:29.821Z,1.48
2023-01-21T07:20:59.030Z,1.83
2023-01-21T07:23:26.733Z,0.90
2023-01-21T07:25:54.525Z,2.38
2023-01-21T07:28:22.241Z,0.50
2023-01-21T07:30:49.953Z,0.88
2023-01-21T07:33:17.642Z,1.58
2023-01-21T07:35:45.333Z,1.25
2023-01-21T07:38:14.385Z,1.10
2023-01-21T07:40:42.175Z,0.98
2023-01-21T07:43:10.619Z,1.40
2023-01-21T07:45:38.627Z,1.40
2023-01-21T07:48:07.332Z,1.10
2023-01-21T07:50:35.812Z,1.90
2023-01-21T07:53:04.590Z,3.45
2023-01-21T07:55:34.041Z,1.17
2023-01-21T07:58:01.757Z,1.77
2023-01-21T08:00:29.557Z,1.08
2023-01-21T08:02:58.949Z,1.45
2023-01-21T08:05:27.693Z,1.15
2023-01-21T08:07:59.112Z,1.33
2023-01-21T08:10:27.766Z,2.58
2023-01-21T08:12:56.819Z,1.27
2023-01-21T08:15:24.547Z,1.42
2023-01-21T08:17:52.255Z,1.95
2023-01-21T08:20:20.129Z,1.63
2023-01-21T08:22:47.787Z,1.40
2023-01-21T08:25:15.970Z,1.15
2023-01-21T08:27:43.850Z,3.25
2023-01-21T08:30:14.267Z,2.42
2023-01-21T08:32:41.975Z,2.25
2023-01-21T08:35:10.872Z,1.90
2023-01-21T08:37:39.831Z,1.85
2023-01-21T08:40:09.587Z,1.13
2023-01-21T08:42:37.324Z,1.20
2023-01-21T08:45:06.824Z,0.70
2023-01-21T08:47:36.002Z,2.15
2023-01-21T08:50:03.778Z,0.82
2023-01-21T08:52:31.549Z,1.50
2023-01-21T08:54:59.242Z,1.83
2023-01-21T08:57:28.350Z,0.85
2023-01-21T08:59:56.228Z,1.90
2023-01-21T09:02:24.011Z,1.40
2023-01-21T09:04:53.051Z,1.35
2023-01-21T09:07:20.799Z,2.80
2023-01-21T09:09:49.406Z,1.52
2023-01-21T09:12:17.187Z,1.20
2023-01-21T09:14:45.107Z,1.50
2023-01-21T09:17:12.841Z,1.88
2023-01-21T09:19:40.552Z,1.45
2023-01-21T09:22:09.788Z,1.38
2023-01-21T09:24:37.501Z,2.28
2023-01-21T09:27:07.655Z,1.73
2023-01-21T09:29:35.761Z,1.45
2023-01-21T09:32:05.161Z,1.65
2023-01-21T09:34:35.483Z,1.85
2023-01-21T09:37:04.967Z,1.73
2023-01-21T09:39:34.045Z,1.98
2023-01-21T09:42:01.740Z,1.80
2023-01-21T09:44:36.053Z,1.67
2023-01-21T09:47:10.594Z,1.40
2023-01-21T09:49:43.157Z,1.65
2023-01-21T09:52:25.633Z,1.35
2023-01-21T09:54:55.989Z,1.80
2023-01-21T09:57:58.649Z,2.35
2023-01-21T10:00:36.600Z,2.53
2023-01-21T10:03:19.121Z,1.30
2023-01-21T10:06:09.550Z,2.47
2023-01-21T10:09:00.754Z,1.85
2023-01-21T10:11:51.123Z,1.83
2023-01-21T10:14:47.975Z,2.03
2023-01-21T10:17:26.337Z,2.33
2023-01-21T10:20:11.564Z,1.92
2023-01-21T10:22:46.703Z,2.22
2023-01-21T10:25:23.942Z,2.38
2023-01-21T10:27:56.077Z,2.63
2023-01-21T10:30:31.492Z,2.45
2023-01-21T10:33:00.015Z,2.90
2023-01-21T10:35:49.385Z,3.45
2023-01-21T10:38:29.525Z,2.75
2023-01-21T10:41:05.823Z,3.17
2023-01-21T10:43:48.507Z,3.13
2023-01-21T10:46:29.077Z,1.90
2023-01-21T10:49:14.582Z,2.35
2023-01-21T10:51:54.418Z,2.17
2023-01-21T10:54:41.513Z,3.17
2023-01-21T10:57:31.878Z,2.83
2023-01-21T11:00:05.199Z,2.22
2023-01-21T11:02:35.269Z,3.67
2023-01-21T11:05:06.170Z,3.42
2023-01-21T11:07:42.092Z,3.10
2023-01-21T11:10:18.772Z,2.50
2023-01-21T11:12:46.439Z,3.33
2023-01-21T11:15:19.779Z,2.13
2023-01-21T11:17:52.966Z,2.67
2023-01-21T11:20:26.981Z,2.78
2023-01-21T11:22:54.823Z,3.53
2023-01-21T11:25:40.935Z,2.78
2023-01-21T11:28:24.915Z,3.53
2023-01-21T11:31:07.895Z,2.13
2023-01-21T11:33:38.153Z,3.47
2023-01-21T11:36:18.921Z,3.70
2023-01-21T11:39:00.502Z,3.88
2023-01-21T11:41:29.149Z,2.05
2023-01-21T11:44:11.432Z,2.60
2023-01-21T11:46:42.332Z,3.65
2023-01-21T11:49:28.091Z,2.58
2023-01-21T11:52:16.649Z,4.32
2023-01-21T11:54:45.187Z,3.70
2023-01-21T11:57:33.953Z,3.72
2023-01-21T12:00:09.722Z,3.08
2023-01-21T12:02:46.098Z,3.30
2023-01-21T12:05:21.778Z,4.70
2023-01-21T12:07:52.303Z,3.88
2023-01-21T12:10:28.609Z,4.00
2023-01-21T12:13:24.327Z,3.15
2023-01-21T12:16:26.304Z,3.72
2023-01-21T12:19:17.803Z,4.32
2023-01-21T12:22:20.501Z,4.78
2023-01-21T12:25:08.202Z,3.40
2023-01-21T12:28:01.300Z,4.55
2023-01-21T12:30:45.853Z,4.18
2023-01-21T12:33:22.524Z,4.05
2023-01-21T12:35:56.397Z,3.38
2023-01-21T12:38:32.365Z,2.58
2023-01-21T12:41:09.245Z,3.63
2023-01-21T12:43:44.763Z,3.90
2023-01-21T12:46:21.894Z,4.30
2023-01-21T12:48:56.760Z,3.40
2023-01-21T12:51:31.575Z,4.22
2023-01-21T12:54:15.462Z,4.93
2023-01-21T12:56:51.572Z,4.28
2023-01-21T12:59:28.172Z,4.53
2023-01-21T13:02:05.435Z,3.38
2023-01-21T13:04:49.573Z,3.35
2023-01-21T13:07:38.125Z,4.53
2023-01-21T13:10:20.264Z,3.70
2023-01-21T13:12:57.357Z,4.13
2023-01-21T13:15:32.880Z,3.72
2023-01-21T13:18:06.719Z,3.75
2023-01-21T13:20:42.198Z,4.00
2023-01-21T13:23:22.644Z,3.78
2023-01-21T13:26:00.830Z,3.88
2023-01-21T13:28:38.992Z,4.32
2023-01-21T13:31:20.724Z,3.58
2023-01-21T13:34:01.777Z,4.22
2023-01-21T13:36:52.675Z,4.15
2023-01-21T13:39:32.362Z,3.17
2023-01-21T13:42:28.818Z,3.08
2023-01-21T13:45:14.038Z,2.33
2023-01-21T13:48:05.533Z,2.10
2023-01-21T13:50:51.809Z,2.25
2023-01-21T13:53:46.373Z,2.65
2023-01-21T13:56:39.681Z,2.78
2023-01-21T13:59:17.242Z,2.17
2023-01-21T14:01:53.100Z,2.35
2023-01-21T14:04:34.293Z,3.58
2023-01-21T14:07:11.597Z,3.30
2023-01-21T14:09:46.412Z,3.63
2023-01-21T14:12:23.469Z,2.30
2023-01-21T14:15:22.565Z,2.38
2023-01-21T14:18:31.850Z,2.80
2023-01-21T14:21:33.674Z,2.90
2023-01-21T14:24:38.675Z,2.90
2023-01-21T14:27:24.849Z,2.22
2023-01-21T14:29:58.431Z,2.90
2023-01-21T14:32:36.234Z,1.98
2023-01-21T14:35:20.061Z,1.98
2023-01-21T14:37:57.859Z,2.92
2023-01-21T14:40:32.377Z,2.10
2023-01-21T14:45:55.613Z,1.92
2023-01-21T14:48:32.338Z,1.65
2023-01-21T14:51:21.313Z,2.85
2023-01-21T14:53:52.094Z,2.30
2023-01-21T14:56:25.539Z,2.60
2023-01-21T14:58:59.321Z,2.65
2023-01-21T15:01:35.943Z,2.25
2023-01-21T15:04:16.128Z,3.20
2023-01-21T15:06:44.560Z,2.70
2023-01-21T15:09:25.538Z,2.13
2023-01-21T15:12:01.561Z,3.17
2023-01-21T15:14:36.452Z,1.90
2023-01-21T15:17:05.364Z,1.35
2023-01-21T15:19:35.354Z,2.08
2023-01-21T15:22:41.864Z,2.97
2023-01-21T15:25:34.091Z,1.90
2023-01-21T15:28:44.107Z,1.02
2023-01-21T15:31:41.734Z,3.42
2023-01-21T15:34:16.792Z,2.00
2023-01-21T15:36:50.216Z,2.45
2023-01-21T15:39:28.661Z,2.55
2023-01-21T15:42:18.706Z,2.30
2023-01-21T15:45:05.891Z,2.67
2023-01-21T15:48:05.404Z,2.28
2023-01-21T15:50:47.113Z,1.80
2023-01-21T15:53:49.929Z,2.97
2023-01-21T15:56:44.161Z,2.30
2023-01-21T15:59:30.677Z,3.63
2023-01-21T16:02:18.102Z,3.10
2023-01-21T16:05:08.120Z,3.17
2023-01-21T16:07:51.981Z,3.17
2023-01-21T16:10:32.386Z,1.77
2023-01-21T16:13:17.468Z,1.63
2023-01-21T16:16:04.860Z,2.00
2023-01-21T16:18:43.341Z,2.47
2023-01-21T16:21:13.281Z,1.90
2023-01-21T16:23:44.217Z,2.45
2023-01-21T16:26:25.220Z,2.65
2023-01-21T16:28:54.515Z,2.60
2023-01-21T16:31:23.323Z,2.55
2023-01-21T16:33:53.491Z,1.75
2023-01-21T16:36:22.719Z,1.63
2023-01-21T16:38:50.522Z,2.33
2023-01-21T16:41:24.588Z,2.58
2023-01-21T16:43:56.387Z,1.83
2023-01-21T16:46:28.030Z,2.50
2023-01-21T16:48:59.991Z,2.67
2023-01-21T16:51:34.910Z,2.22
2023-01-21T16:54:24.874Z,2.08
2023-01-21T16:56:57.246Z,2.25
2023-01-21T16:59:30.698Z,2.17
2023-01-21T17:02:01.165Z,2.50
2023-01-21T17:04:30.767Z,1.90
2023-01-21T17:07:00.163Z,1.92
2023-01-21T17:09:32.576Z,1.83
2023-01-21T17:12:06.784Z,1.83
2023-01-21T17:14:36.335Z,2.45
2023-01-21T17:17:09.191Z,1.95
2023-01-21T17:19:40.495Z,2.40
2023-01-21T17:22:17.295Z,2.70
2023-01-21T17:25:06.614Z,1.75
2023-01-21T17:27:38.747Z,3.53
2023-01-21T17:30:27.930Z,2.38
2023-01-21T17:32:58.070Z,2.67
2023-01-21T17:35:29.023Z,3.10
2023-01-21T17:38:01.719Z,2.55
2023-01-21T17:40:34.159Z,2.92
2023-01-21T17:43:18.794Z,3.08
2023-01-21T17:45:50.184Z,2.67
2023-01-21T17:48:27.282Z,3.17
2023-01-21T17:50:57.029Z,2.05
2023-01-21T17:53:30.839Z,2.22
2023-01-21T17:56:02.841Z,2.35
2023-01-21T17:58:51.888Z,2.78
2023-01-21T18:01:21.533Z,2.13
2023-01-21T18:03:49.272Z,1.98
2023-01-21T18:06:23.022Z,1.35
2023-01-21T18:08:53.885Z,2.80
2023-01-21T18:11:23.423Z,2.22
2023-01-21T18:13:52.376Z,1.30
2023-01-21T18:16:20.167Z,1.83
2023-01-21T18:18:49.296Z,2.80
2023-01-21T18:21:21.647Z,1.90
2023-01-21T18:23:51.809Z,2.03
2023-01-21T18:26:32.978Z,2.63
2023-01-21T18:29:00.770Z,2.38
2023-01-21T18:31:28.541Z,1.83
2023-01-21T18:33:56.313Z,2.05
2023-01-21T18:36:24.067Z,2.58
2023-01-21T18:38:53.090Z,2.20
2023-01-21T18:41:20.878Z,2.05
2023-01-21T18:43:48.580Z,1.63
2023-01-21T18:46:16.912Z,1.70
2023-01-21T18:48:44.756Z,1.95
2023-01-21T18:51:14.574Z,2.58
2023-01-21T18:53:42.380Z,2.05
2023-01-21T18:56:18.592Z,2.65
2023-01-21T18:58:46.295Z,0.82
2023-01-21T19:01:23.241Z,2.97
2023-01-21T19:03:54.670Z,2.17
2023-01-21T19:06:25.147Z,3.17
2023-01-21T19:08:54.785Z,2.22
2023-01-21T19:11:23.895Z,2.20
2023-01-21T19:13:51.642Z,3.22
2023-01-21T19:16:22.535Z,2.05
2023-01-21T19:18:50.279Z,2.10
2023-01-21T19:21:18.346Z,1.63
2023-01-21T19:23:46.311Z,3.25
2023-01-21T19:26:15.114Z,3.03
2023-01-21T19:28:44.119Z,2.40
2023-01-21T19:31:11.869Z,2.50
2023-01-21T19:33:41.801Z,1.85
2023-01-21T19:36:16.174Z,3.08
2023-01-21T19:38:49.429Z,2.30
2023-01-21T19:41:17.131Z,2.50
2023-01-21T19:43:46.217Z,3.00
2023-01-21T19:46:14.084Z,1.77
2023-01-21T19:48:42.440Z,1.95
2023-01-21T19:51:10.729Z,1.48
2023-01-21T19:53:38.519Z,2.25
2023-01-21T19:56:07.789Z,1.40
2023-01-21T19:58:35.653Z,1.92
2023-01-21T20:01:04.955Z,2.05
2023-01-21T20:03:32.989Z,2.97
2023-01-21T20:06:02.995Z,3.40
2023-01-21T20:08:32.710Z,1.88
2023-01-21T20:11:00.497Z,2.17
2023-01-21T20:13:31.300Z,3.78
2023-01-21T20:16:12.524Z,2.15
2023-01-21T20:18:42.229Z,2.83
2023-01-21T20:21:10.447Z,2.80
2023-01-21T20:23:39.088Z,2.58
2023-01-21T20:26:13.561Z,2.08
2023-01-21T20:28:47.649Z,1.85
2023-01-21T20:31:16.813Z,2.53
2023-01-21T20:33:44.521Z,1.27
2023-01-21T20:36:19.937Z,2.05
2023-01-21T20:38:48.165Z,2.17
2023-01-21T20:41:16.113Z,1.83
2023-01-21T20:43:43.989Z,2.97
2023-01-21T20:46:19.083Z,2.13
2023-01-21T20:48:47.021Z,2.85
2023-01-21T20:51:14.938Z,3.17
2023-01-21T20:53:42.701Z,2.35
2023-01-21T20:56:21.887Z,2.63
2023-01-21T20:58:50.302Z,2.85
2023-01-21T21:01:21.922Z,2.05
2023-01-21T21:03:50.482Z,2.80
2023-01-21T21:06:21.362Z,3.42
2023-01-21T21:08:50.449Z,2.35
2023-01-21T21:11:19.837Z,2.55
2023-01-21T21:13:51.632Z,2.88
2023-01-21T21:16:23.983Z,2.60
2023-01-21T21:18:52.170Z,1.92
2023-01-21T21:21:23.277Z,1.95
2023-01-21T21:23:52.138Z,2.83
2023-01-21T21:26:24.149Z,2.15
2023-01-21T21:28:54.491Z,4.00
2023-01-21T21:31:25.239Z,2.25
2023-01-21T21:33:53.648Z,1.67
2023-01-21T21:36:24.427Z,2.22
2023-01-21T21:38:55.259Z,1.73
2023-01-21T21:41:51.562Z,1.50
2023-01-21T21:44:19.319Z,2.45
2023-01-21T21:47:05.985Z,2.33
2023-01-21T21:49:34.230Z,2.30
2023-01-21T21:52:01.913Z,2.85
2023-01-21T21:54:29.608Z,2.30
2023-01-21T21:56:57.795Z,2.78
2023-01-21T21:59:25.514Z,2.00
2023-01-21T22:01:54.681Z,2.03
2023-01-21T22:04:23.482Z,2.13
2023-01-21T22:06:51.236Z,1.98
2023-01-21T22:09:18.985Z,1.77
2023-01-21T22:11:46.725Z,2.28
2023-01-21T22:14:14.459Z,2.92
2023-01-21T22:16:42.293Z,1.77
2023-01-21T22:19:13.032Z,2.90
2023-01-21T22:21:40.782Z,2.63
2023-01-21T22:24:09.064Z,3.25
2023-01-21T22:26:36.995Z,2.20
2023-01-21T22:29:05.708Z,2.47
2023-01-21T22:31:34.989Z,2.15
2023-01-21T22:34:02.921Z,2.10
2023-01-21T22:36:32.334Z,2.00
2023-01-21T22:39:01.142Z,2.33
2023-01-21T22:41:28.942Z,1.13
2023-01-21T22:43:56.846Z,2.05
2023-01-21T22:46:27.049Z,2.97
2023-01-21T22:48:55.719Z,1.75
2023-01-21T22:51:24.212Z,2.25
2023-01-21T22:53:54.485Z,1.77
2023-01-21T22:56:35.625Z,1.98
2023-01-21T22:59:12.340Z,1.60
2023-01-21T23:01:40.407Z,2.10
2023-01-21T23:04:08.211Z,1.88
2023-01-21T23:06:37.740Z,1.58
2023-01-21T23:09:09.601Z,2.67
2023-01-21T23:11:39.618Z,2.67
2023-01-21T23:14:09.306Z,1.38
2023-01-21T23:16:37.210Z,1.63
2023-01-21T23:19:04.939Z,1.52
2023-01-21T23:21:32.687Z,2.30
2023-01-21T23:24:00.406Z,2.33
2023-01-21T23:26:29.746Z,1.98
2023-01-21T23:28:58.066Z,2.08
2023-01-21T23:31:26.576Z,1.73
2023-01-21T23:33:57.104Z,2.25
2023-01-21T23:36:25.452Z,1.35
2023-01-21T23:38:53.195Z,1.55
2023-01-21T23:41:21.088Z,1.90
2023-01-21T23:43:50.242Z,1.80
2023-01-21T23:46:19.402Z,1.05
2023-01-21T23:48:47.703Z,1.00
2023-01-21T23:51:17.395Z,1.58
2023-01-21T23:53:45.882Z,2.50
2023-01-21T23:56:16.832Z,1.83
2023-01-21T23:58:44.765Z,1.90
